sensor_id;sensor_type;location;lat;lon;timestamp;temperature;humidity
25716;DHT22;13573;50.936;4.328;2023-06-26T00:01:11;23.40;99.90
25716;DHT22;13573;50.936;4.328;2023-06-26T00:03:38;23.40;99.90
25716;DHT22;13573;50.936;4.328;2023-06-26T00:06:05;23.30;99.90
25716;DHT22;13573;50.936;4.328;2023-06-26T00:08:32;23.20;99.90
25716;DHT22;13573;50.936;4.328;2023-06-26T00:10:59;23.40;99.90
25716;DHT22;13573;50.936;4.328;2023-06-26T00:13:25;23.10;99.90
25716;DHT22;13573;50.936;4.328;2023-06-26T00:15:52;23.10;99.90
25716;DHT22;13573;50.936;4.328;2023-06-26T00:18:19;23.20;99.90
25716;DHT22;13573;50.936;4.328;2023-06-26T00:20:46;23.20;99.90
25716;DHT22;13573;50.936;4.328;2023-06-26T00:23:13;23.10;99.90
25716;DHT22;13573;50.936;4.328;2023-06-26T00:25:42;22.90;99.90
25716;DHT22;13573;50.936;4.328;2023-06-26T00:28:09;22.90;99.90
25716;DHT22;13573;50.936;4.328;2023-06-26T00:30:36;22.70;99.90
25716;DHT22;13573;50.936;4.328;2023-06-26T00:33:03;22.60;99.90
25716;DHT22;13573;50.936;4.328;2023-06-26T00:35:29;22.40;99.90
25716;DHT22;13573;50.936;4.328;2023-06-26T00:37:56;22.40;99.90
25716;DHT22;13573;50.936;4.328;2023-06-26T00:40:22;22.50;99.90
25716;DHT22;13573;50.936;4.328;2023-06-26T00:42:49;22.10;99.90
25716;DHT22;13573;50.936;4.328;2023-06-26T00:45:16;21.90;99.90
25716;DHT22;13573;50.936;4.328;2023-06-26T00:47:43;22.10;99.90
25716;DHT22;13573;50.936;4.328;2023-06-26T00:50:10;22.00;99.90
25716;DHT22;13573;50.936;4.328;2023-06-26T00:52:40;22.10;99.90
25716;DHT22;13573;50.936;4.328;2023-06-26T00:55:07;22.00;99.90
25716;DHT22;13573;50.936;4.328;2023-06-26T00:57:35;21.90;99.90
25716;DHT22;13573;50.936;4.328;2023-06-26T01:00:02;21.80;99.90
25716;DHT22;13573;50.936;4.328;2023-06-26T01:02:30;21.80;99.90
25716;DHT22;13573;50.936;4.328;2023-06-26T01:05:01;21.70;99.90
25716;DHT22;13573;50.936;4.328;2023-06-26T01:07:31;22.20;99.90
25716;DHT22;13573;50.936;4.328;2023-06-26T01:10:01;21.80;99.90
25716;DHT22;13573;50.936;4.328;2023-06-26T01:12:27;21.60;99.90
25716;DHT22;13573;50.936;4.328;2023-06-26T01:14:54;21.40;99.90
25716;DHT22;13573;50.936;4.328;2023-06-26T01:17:21;21.30;99.90
25716;DHT22;13573;50.936;4.328;2023-06-26T01:19:50;21.50;99.90
25716;DHT22;13573;50.936;4.328;2023-06-26T01:22:31;21.50;99.90
25716;DHT22;13573;50.936;4.328;2023-06-26T01:27:56;21.60;99.90
25716;DHT22;13573;50.936;4.328;2023-06-26T01:30:23;21.50;99.90
25716;DHT22;13573;50.936;4.328;2023-06-26T01:32:50;21.50;99.90
25716;DHT22;13573;50.936;4.328;2023-06-26T01:35:17;21.60;99.90
25716;DHT22;13573;50.936;4.328;2023-06-26T01:37:44;21.60;99.90
25716;DHT22;13573;50.936;4.328;2023-06-26T01:40:11;21.60;99.90
25716;DHT22;13573;50.936;4.328;2023-06-26T01:42:37;21.50;99.90
25716;DHT22;13573;50.936;4.328;2023-06-26T01:45:12;21.60;99.90
25716;DHT22;13573;50.936;4.328;2023-06-26T01:47:41;21.60;99.90
25716;DHT22;13573;50.936;4.328;2023-06-26T01:50:14;21.50;99.90
25716;DHT22;13573;50.936;4.328;2023-06-26T01:52:46;21.60;99.90
25716;DHT22;13573;50.936;4.328;2023-06-26T01:55:54;21.70;99.90
25716;DHT22;13573;50.936;4.328;2023-06-26T01:58:06;21.40;99.90
25716;DHT22;13573;50.936;4.328;2023-06-26T02:00:36;21.50;99.90
25716;DHT22;13573;50.936;4.328;2023-06-26T02:03:05;21.40;99.90
25716;DHT22;13573;50.936;4.328;2023-06-26T02:05:33;21.40;99.90
25716;DHT22;13573;50.936;4.328;2023-06-26T02:07:59;21.20;99.90
25716;DHT22;13573;50.936;4.328;2023-06-26T02:10:28;21.00;99.90
25716;DHT22;13573;50.936;4.328;2023-06-26T02:12:56;21.10;99.90
25716;DHT22;13573;50.936;4.328;2023-06-26T02:15:23;21.00;99.90
25716;DHT22;13573;50.936;4.328;2023-06-26T02:17:50;21.00;99.90
25716;DHT22;13573;50.936;4.328;2023-06-26T02:20:16;21.00;99.90
25716;DHT22;13573;50.936;4.328;2023-06-26T02:22:43;20.50;99.90
25716;DHT22;13573;50.936;4.328;2023-06-26T02:25:10;21.00;99.90
25716;DHT22;13573;50.936;4.328;2023-06-26T02:27:38;20.90;99.90
25716;DHT22;13573;50.936;4.328;2023-06-26T02:30:05;20.80;99.90
25716;DHT22;13573;50.936;4.328;2023-06-26T02:32:33;20.90;99.90
25716;DHT22;13573;50.936;4.328;2023-06-26T02:34:59;20.70;99.90
25716;DHT22;13573;50.936;4.328;2023-06-26T02:37:26;21.00;99.90
25716;DHT22;13573;50.936;4.328;2023-06-26T02:39:52;20.70;99.90
25716;DHT22;13573;50.936;4.328;2023-06-26T02:42:19;20.90;99.90
25716;DHT22;13573;50.936;4.328;2023-06-26T02:44:46;20.80;99.90
25716;DHT22;13573;50.936;4.328;2023-06-26T02:47:12;20.70;99.90
25716;DHT22;13573;50.936;4.328;2023-06-26T02:49:39;20.70;99.90
25716;DHT22;13573;50.936;4.328;2023-06-26T02:52:06;20.50;99.90
25716;DHT22;13573;50.936;4.328;2023-06-26T02:54:33;20.40;99.90
25716;DHT22;13573;50.936;4.328;2023-06-26T02:56:59;20.40;99.90
25716;DHT22;13573;50.936;4.328;2023-06-26T02:59:26;20.60;99.90
25716;DHT22;13573;50.936;4.328;2023-06-26T03:01:53;20.30;99.90
25716;DHT22;13573;50.936;4.328;2023-06-26T03:04:19;20.50;99.90
25716;DHT22;13573;50.936;4.328;2023-06-26T03:06:47;20.40;99.90
25716;DHT22;13573;50.936;4.328;2023-06-26T03:09:14;20.40;99.90
25716;DHT22;13573;50.936;4.328;2023-06-26T03:11:42;20.30;99.90
25716;DHT22;13573;50.936;4.328;2023-06-26T03:14:09;20.30;99.90
25716;DHT22;13573;50.936;4.328;2023-06-26T03:16:36;20.30;99.90
25716;DHT22;13573;50.936;4.328;2023-06-26T03:19:02;20.30;99.90
25716;DHT22;13573;50.936;4.328;2023-06-26T03:21:30;20.30;99.90
25716;DHT22;13573;50.936;4.328;2023-06-26T03:23:56;20.30;99.90
25716;DHT22;13573;50.936;4.328;2023-06-26T03:26:23;20.00;99.90
25716;DHT22;13573;50.936;4.328;2023-06-26T03:28:53;20.30;99.90
25716;DHT22;13573;50.936;4.328;2023-06-26T03:31:20;20.10;99.90
25716;DHT22;13573;50.936;4.328;2023-06-26T03:33:46;19.80;99.90
25716;DHT22;13573;50.936;4.328;2023-06-26T03:36:13;19.60;99.90
25716;DHT22;13573;50.936;4.328;2023-06-26T03:38:40;19.80;99.90
25716;DHT22;13573;50.936;4.328;2023-06-26T03:41:07;19.40;99.90
25716;DHT22;13573;50.936;4.328;2023-06-26T03:43:33;19.40;99.90
25716;DHT22;13573;50.936;4.328;2023-06-26T03:46:02;19.60;99.90
25716;DHT22;13573;50.936;4.328;2023-06-26T03:48:29;19.40;99.90
25716;DHT22;13573;50.936;4.328;2023-06-26T03:50:56;19.50;99.90
25716;DHT22;13573;50.936;4.328;2023-06-26T03:53:23;19.60;99.90
25716;DHT22;13573;50.936;4.328;2023-06-26T03:55:51;19.70;99.90
25716;DHT22;13573;50.936;4.328;2023-06-26T03:58:17;19.40;99.90
25716;DHT22;13573;50.936;4.328;2023-06-26T04:00:45;19.40;99.90
25716;DHT22;13573;50.936;4.328;2023-06-26T04:03:13;19.40;99.90
25716;DHT22;13573;50.936;4.328;2023-06-26T04:05:39;19.60;99.90
25716;DHT22;13573;50.936;4.328;2023-06-26T04:08:06;19.50;99.90
25716;DHT22;13573;50.936;4.328;2023-06-26T04:10:33;19.40;99.90
25716;DHT22;13573;50.936;4.328;2023-06-26T04:13:02;19.60;99.90
25716;DHT22;13573;50.936;4.328;2023-06-26T04:15:29;19.30;99.90
25716;DHT22;13573;50.936;4.328;2023-06-26T04:17:56;19.50;99.90
25716;DHT22;13573;50.936;4.328;2023-06-26T04:20:23;19.50;99.90
25716;DHT22;13573;50.936;4.328;2023-06-26T04:22:52;19.50;99.90
25716;DHT22;13573;50.936;4.328;2023-06-26T04:25:19;19.60;99.90
25716;DHT22;13573;50.936;4.328;2023-06-26T04:27:46;19.40;99.90
25716;DHT22;13573;50.936;4.328;2023-06-26T04:30:13;19.30;99.90
25716;DHT22;13573;50.936;4.328;2023-06-26T04:32:40;19.60;99.90
25716;DHT22;13573;50.936;4.328;2023-06-26T04:35:07;19.40;99.90
25716;DHT22;13573;50.936;4.328;2023-06-26T04:37:33;19.60;99.90
25716;DHT22;13573;50.936;4.328;2023-06-26T04:40:00;19.50;99.90
25716;DHT22;13573;50.936;4.328;2023-06-26T04:42:27;19.50;99.90
25716;DHT22;13573;50.936;4.328;2023-06-26T04:44:53;19.60;99.90
25716;DHT22;13573;50.936;4.328;2023-06-26T04:47:21;19.50;99.90
25716;DHT22;13573;50.936;4.328;2023-06-26T04:49:49;19.70;99.90
25716;DHT22;13573;50.936;4.328;2023-06-26T04:52:16;19.60;99.90
25716;DHT22;13573;50.936;4.328;2023-06-26T04:54:43;20.00;99.90
25716;DHT22;13573;50.936;4.328;2023-06-26T04:57:09;20.00;99.90
25716;DHT22;13573;50.936;4.328;2023-06-26T04:59:38;20.20;99.90
25716;DHT22;13573;50.936;4.328;2023-06-26T05:02:05;20.40;99.90
25716;DHT22;13573;50.936;4.328;2023-06-26T05:04:32;20.20;99.90
25716;DHT22;13573;50.936;4.328;2023-06-26T05:07:03;20.40;99.90
25716;DHT22;13573;50.936;4.328;2023-06-26T05:09:31;20.40;99.90
25716;DHT22;13573;50.936;4.328;2023-06-26T05:11:58;20.70;99.90
25716;DHT22;13573;50.936;4.328;2023-06-26T05:14:25;20.90;99.90
25716;DHT22;13573;50.936;4.328;2023-06-26T05:16:53;20.60;99.90
25716;DHT22;13573;50.936;4.328;2023-06-26T05:19:20;20.60;99.90
25716;DHT22;13573;50.936;4.328;2023-06-26T05:21:48;21.00;99.90
25716;DHT22;13573;50.936;4.328;2023-06-26T05:24:16;21.00;99.90
25716;DHT22;13573;50.936;4.328;2023-06-26T05:26:43;21.40;99.90
25716;DHT22;13573;50.936;4.328;2023-06-26T05:29:10;21.50;99.90
25716;DHT22;13573;50.936;4.328;2023-06-26T05:31:41;21.70;99.90
25716;DHT22;13573;50.936;4.328;2023-06-26T05:34:09;22.00;99.90
25716;DHT22;13573;50.936;4.328;2023-06-26T05:36:37;21.60;99.90
25716;DHT22;13573;50.936;4.328;2023-06-26T05:39:06;22.00;99.90
25716;DHT22;13573;50.936;4.328;2023-06-26T05:41:33;22.10;99.90
25716;DHT22;13573;50.936;4.328;2023-06-26T05:43:59;22.00;99.90
25716;DHT22;13573;50.936;4.328;2023-06-26T05:46:27;22.00;99.90
25716;DHT22;13573;50.936;4.328;2023-06-26T05:48:55;22.10;99.90
25716;DHT22;13573;50.936;4.328;2023-06-26T05:51:22;22.70;99.90
25716;DHT22;13573;50.936;4.328;2023-06-26T05:53:51;22.90;99.90
25716;DHT22;13573;50.936;4.328;2023-06-26T05:56:19;22.90;99.90
25716;DHT22;13573;50.936;4.328;2023-06-26T05:58:47;23.30;99.90
25716;DHT22;13573;50.936;4.328;2023-06-26T06:01:14;23.50;99.90
25716;DHT22;13573;50.936;4.328;2023-06-26T06:03:41;23.80;99.90
25716;DHT22;13573;50.936;4.328;2023-06-26T06:06:08;24.00;99.90
25716;DHT22;13573;50.936;4.328;2023-06-26T06:08:36;25.00;99.90
25716;DHT22;13573;50.936;4.328;2023-06-26T06:11:03;24.80;99.90
25716;DHT22;13573;50.936;4.328;2023-06-26T06:13:29;25.40;99.90
25716;DHT22;13573;50.936;4.328;2023-06-26T06:15:56;25.30;99.90
25716;DHT22;13573;50.936;4.328;2023-06-26T06:18:23;25.60;99.90
25716;DHT22;13573;50.936;4.328;2023-06-26T06:20:50;26.00;99.90
25716;DHT22;13573;50.936;4.328;2023-06-26T06:23:17;25.90;99.90
25716;DHT22;13573;50.936;4.328;2023-06-26T06:25:47;26.20;99.90
25716;DHT22;13573;50.936;4.328;2023-06-26T06:28:14;26.00;99.90
25716;DHT22;13573;50.936;4.328;2023-06-26T06:30:42;26.20;99.90
25716;DHT22;13573;50.936;4.328;2023-06-26T06:33:09;26.20;99.90
25716;DHT22;13573;50.936;4.328;2023-06-26T06:35:36;26.40;99.90
25716;DHT22;13573;50.936;4.328;2023-06-26T06:38:04;26.70;99.90
25716;DHT22;13573;50.936;4.328;2023-06-26T06:40:33;27.00;99.90
25716;DHT22;13573;50.936;4.328;2023-06-26T06:43:00;27.10;99.90
25716;DHT22;13573;50.936;4.328;2023-06-26T06:45:27;26.80;99.90
25716;DHT22;13573;50.936;4.328;2023-06-26T06:47:54;27.10;99.90
25716;DHT22;13573;50.936;4.328;2023-06-26T06:50:20;27.00;99.90
25716;DHT22;13573;50.936;4.328;2023-06-26T06:52:47;26.20;99.90
25716;DHT22;13573;50.936;4.328;2023-06-26T06:55:14;25.60;99.90
25716;DHT22;13573;50.936;4.328;2023-06-26T06:57:40;25.80;99.90
25716;DHT22;13573;50.936;4.328;2023-06-26T07:00:09;25.40;99.90
25716;DHT22;13573;50.936;4.328;2023-06-26T07:02:38;26.60;99.90
25716;DHT22;13573;50.936;4.328;2023-06-26T07:05:05;27.00;99.90
25716;DHT22;13573;50.936;4.328;2023-06-26T07:07:33;26.90;99.90
25716;DHT22;13573;50.936;4.328;2023-06-26T07:10:02;26.10;99.90
25716;DHT22;13573;50.936;4.328;2023-06-26T07:12:29;25.60;99.90
25716;DHT22;13573;50.936;4.328;2023-06-26T07:14:57;25.70;99.90
25716;DHT22;13573;50.936;4.328;2023-06-26T07:17:23;25.80;99.90
25716;DHT22;13573;50.936;4.328;2023-06-26T07:19:50;26.50;99.90
25716;DHT22;13573;50.936;4.328;2023-06-26T07:22:17;26.40;99.90
25716;DHT22;13573;50.936;4.328;2023-06-26T07:24:46;26.50;99.90
25716;DHT22;13573;50.936;4.328;2023-06-26T07:27:15;26.90;99.90
25716;DHT22;13573;50.936;4.328;2023-06-26T07:29:42;27.10;99.90
25716;DHT22;13573;50.936;4.328;2023-06-26T07:32:09;27.20;99.90
25716;DHT22;13573;50.936;4.328;2023-06-26T07:34:35;26.70;99.90
25716;DHT22;13573;50.936;4.328;2023-06-26T07:37:02;26.90;99.90
25716;DHT22;13573;50.936;4.328;2023-06-26T07:39:29;27.20;99.90
25716;DHT22;13573;50.936;4.328;2023-06-26T07:41:56;28.50;99.90
25716;DHT22;13573;50.936;4.328;2023-06-26T07:44:25;27.90;99.90
25716;DHT22;13573;50.936;4.328;2023-06-26T07:46:52;27.90;99.90
25716;DHT22;13573;50.936;4.328;2023-06-26T07:49:19;28.00;99.90
25716;DHT22;13573;50.936;4.328;2023-06-26T07:51:45;27.60;99.90
25716;DHT22;13573;50.936;4.328;2023-06-26T07:54:12;27.50;99.90
25716;DHT22;13573;50.936;4.328;2023-06-26T07:59:13;27.90;99.90
25716;DHT22;13573;50.936;4.328;2023-06-26T08:01:40;27.90;99.90
25716;DHT22;13573;50.936;4.328;2023-06-26T08:04:07;28.30;99.90
25716;DHT22;13573;50.936;4.328;2023-06-26T08:06:33;28.30;99.90
25716;DHT22;13573;50.936;4.328;2023-06-26T08:09:00;28.70;99.90
25716;DHT22;13573;50.936;4.328;2023-06-26T08:11:28;29.00;99.90
25716;DHT22;13573;50.936;4.328;2023-06-26T08:13:55;29.60;99.90
25716;DHT22;13573;50.936;4.328;2023-06-26T08:16:22;29.80;99.90
25716;DHT22;13573;50.936;4.328;2023-06-26T08:18:48;29.90;99.90
25716;DHT22;13573;50.936;4.328;2023-06-26T08:21:15;29.20;99.90
25716;DHT22;13573;50.936;4.328;2023-06-26T08:23:42;29.40;99.90
25716;DHT22;13573;50.936;4.328;2023-06-26T08:26:08;29.40;99.90
25716;DHT22;13573;50.936;4.328;2023-06-26T08:28:35;28.70;99.90
25716;DHT22;13573;50.936;4.328;2023-06-26T08:31:01;28.10;99.90
25716;DHT22;13573;50.936;4.328;2023-06-26T08:33:28;29.10;99.90
25716;DHT22;13573;50.936;4.328;2023-06-26T08:35:55;28.70;99.90
25716;DHT22;13573;50.936;4.328;2023-06-26T08:38:21;28.80;99.90
25716;DHT22;13573;50.936;4.328;2023-06-26T08:40:48;29.50;99.90
25716;DHT22;13573;50.936;4.328;2023-06-26T08:43:15;29.00;99.90
25716;DHT22;13573;50.936;4.328;2023-06-26T08:45:41;29.20;99.90
25716;DHT22;13573;50.936;4.328;2023-06-26T08:48:09;29.80;99.90
25716;DHT22;13573;50.936;4.328;2023-06-26T08:50:38;29.50;99.90
25716;DHT22;13573;50.936;4.328;2023-06-26T08:53:24;29.10;99.90
25716;DHT22;13573;50.936;4.328;2023-06-26T08:55:52;29.10;99.90
25716;DHT22;13573;50.936;4.328;2023-06-26T08:58:20;30.00;99.80
25716;DHT22;13573;50.936;4.328;2023-06-26T09:00:47;30.60;99.20
25716;DHT22;13573;50.936;4.328;2023-06-26T09:03:15;29.80;99.80
25716;DHT22;13573;50.936;4.328;2023-06-26T09:05:43;30.20;99.20
25716;DHT22;13573;50.936;4.328;2023-06-26T09:08:10;30.10;99.70
25716;DHT22;13573;50.936;4.328;2023-06-26T09:10:37;30.70;99.00
25716;DHT22;13573;50.936;4.328;2023-06-26T09:13:03;30.80;98.20
25716;DHT22;13573;50.936;4.328;2023-06-26T09:15:38;31.00;97.50
25716;DHT22;13573;50.936;4.328;2023-06-26T09:18:06;31.70;97.10
25716;DHT22;13573;50.936;4.328;2023-06-26T09:20:33;31.00;96.90
25716;DHT22;13573;50.936;4.328;2023-06-26T09:23:00;29.90;98.60
25716;DHT22;13573;50.936;4.328;2023-06-26T09:25:29;30.20;98.40
25716;DHT22;13573;50.936;4.328;2023-06-26T09:27:57;30.50;97.10
25716;DHT22;13573;50.936;4.328;2023-06-26T09:30:25;30.70;96.80
25716;DHT22;13573;50.936;4.328;2023-06-26T09:32:51;30.90;97.00
25716;DHT22;13573;50.936;4.328;2023-06-26T09:35:20;31.60;95.60
25716;DHT22;13573;50.936;4.328;2023-06-26T09:37:47;31.10;94.60
25716;DHT22;13573;50.936;4.328;2023-06-26T09:40:14;30.60;94.80
25716;DHT22;13573;50.936;4.328;2023-06-26T09:42:42;31.40;93.70
25716;DHT22;13573;50.936;4.328;2023-06-26T09:45:17;31.70;93.50
25716;DHT22;13573;50.936;4.328;2023-06-26T09:47:43;31.80;93.10
25716;DHT22;13573;50.936;4.328;2023-06-26T09:50:27;31.20;93.30
25716;DHT22;13573;50.936;4.328;2023-06-26T09:52:53;31.50;92.80
25716;DHT22;13573;50.936;4.328;2023-06-26T09:55:20;31.00;92.90
25716;DHT22;13573;50.936;4.328;2023-06-26T09:57:50;30.70;92.90
25716;DHT22;13573;50.936;4.328;2023-06-26T10:00:17;30.60;93.30
25716;DHT22;13573;50.936;4.328;2023-06-26T10:05:18;30.40;97.40
25716;DHT22;13573;50.936;4.328;2023-06-26T10:07:46;32.50;91.10
25716;DHT22;13573;50.936;4.328;2023-06-26T10:10:15;32.20;91.20
25716;DHT22;13573;50.936;4.328;2023-06-26T10:12:45;32.60;91.10
25716;DHT22;13573;50.936;4.328;2023-06-26T10:15:13;33.10;90.80
25716;DHT22;13573;50.936;4.328;2023-06-26T10:17:43;32.80;90.40
25716;DHT22;13573;50.936;4.328;2023-06-26T10:20:12;32.40;90.00
25716;DHT22;13573;50.936;4.328;2023-06-26T10:22:44;31.90;90.80
25716;DHT22;13573;50.936;4.328;2023-06-26T10:25:17;32.30;90.20
25716;DHT22;13573;50.936;4.328;2023-06-26T10:28:02;32.30;90.70
25716;DHT22;13573;50.936;4.328;2023-06-26T10:30:33;32.70;90.10
25716;DHT22;13573;50.936;4.328;2023-06-26T10:33:02;32.20;90.90
25716;DHT22;13573;50.936;4.328;2023-06-26T10:35:30;32.60;90.30
25716;DHT22;13573;50.936;4.328;2023-06-26T10:38:02;32.70;90.30
25716;DHT22;13573;50.936;4.328;2023-06-26T10:43:07;33.00;88.40
25716;DHT22;13573;50.936;4.328;2023-06-26T10:45:35;33.30;88.10
25716;DHT22;13573;50.936;4.328;2023-06-26T10:48:03;33.30;87.70
25716;DHT22;13573;50.936;4.328;2023-06-26T10:50:31;32.30;89.40
25716;DHT22;13573;50.936;4.328;2023-06-26T10:53:23;32.20;89.30
25716;DHT22;13573;50.936;4.328;2023-06-26T10:55:57;32.60;88.90
25716;DHT22;13573;50.936;4.328;2023-06-26T10:58:42;31.50;88.70
25716;DHT22;13573;50.936;4.328;2023-06-26T11:01:16;30.70;88.60
25716;DHT22;13573;50.936;4.328;2023-06-26T11:03:48;30.90;85.10
25716;DHT22;13573;50.936;4.328;2023-06-26T11:06:20;31.40;84.30
25716;DHT22;13573;50.936;4.328;2023-06-26T11:08:51;31.80;85.70
25716;DHT22;13573;50.936;4.328;2023-06-26T11:11:20;31.60;84.60
25716;DHT22;13573;50.936;4.328;2023-06-26T11:13:47;31.30;84.30
25716;DHT22;13573;50.936;4.328;2023-06-26T11:16:15;30.90;84.40
25716;DHT22;13573;50.936;4.328;2023-06-26T11:18:42;30.20;84.90
25716;DHT22;13573;50.936;4.328;2023-06-26T11:21:10;29.80;86.40
25716;DHT22;13573;50.936;4.328;2023-06-26T11:23:40;30.10;86.70
25716;DHT22;13573;50.936;4.328;2023-06-26T11:26:17;31.10;86.40
25716;DHT22;13573;50.936;4.328;2023-06-26T11:28:47;30.80;86.80
25716;DHT22;13573;50.936;4.328;2023-06-26T11:31:27;31.60;86.00
25716;DHT22;13573;50.936;4.328;2023-06-26T11:34:00;31.80;85.40
25716;DHT22;13573;50.936;4.328;2023-06-26T11:36:27;31.70;84.60
25716;DHT22;13573;50.936;4.328;2023-06-26T11:38:58;30.80;84.90
25716;DHT22;13573;50.936;4.328;2023-06-26T11:41:27;30.60;85.40
25716;DHT22;13573;50.936;4.328;2023-06-26T11:43:54;30.40;85.60
25716;DHT22;13573;50.936;4.328;2023-06-26T11:46:22;29.90;86.80
25716;DHT22;13573;50.936;4.328;2023-06-26T11:48:49;29.20;88.30
25716;DHT22;13573;50.936;4.328;2023-06-26T11:51:16;29.70;88.00
25716;DHT22;13573;50.936;4.328;2023-06-26T11:53:45;30.80;87.40
25716;DHT22;13573;50.936;4.328;2023-06-26T11:56:13;32.60;85.10
25716;DHT22;13573;50.936;4.328;2023-06-26T12:01:20;31.70;85.30
25716;DHT22;13573;50.936;4.328;2023-06-26T12:03:49;30.80;85.20
25716;DHT22;13573;50.936;4.328;2023-06-26T12:06:16;30.70;86.40
25716;DHT22;13573;50.936;4.328;2023-06-26T12:08:44;31.00;86.00
25716;DHT22;13573;50.936;4.328;2023-06-26T12:11:12;31.70;85.20
25716;DHT22;13573;50.936;4.328;2023-06-26T12:13:39;32.30;82.90
25716;DHT22;13573;50.936;4.328;2023-06-26T12:16:06;31.90;82.60
25716;DHT22;13573;50.936;4.328;2023-06-26T12:18:34;31.80;83.30
25716;DHT22;13573;50.936;4.328;2023-06-26T12:21:02;32.00;83.20
25716;DHT22;13573;50.936;4.328;2023-06-26T12:23:33;31.70;84.60
25716;DHT22;13573;50.936;4.328;2023-06-26T12:28:40;32.80;82.10
25716;DHT22;13573;50.936;4.328;2023-06-26T12:31:15;33.60;81.20
25716;DHT22;13573;50.936;4.328;2023-06-26T12:33:43;33.70;81.30
25716;DHT22;13573;50.936;4.328;2023-06-26T12:36:11;34.20;80.20
25716;DHT22;13573;50.936;4.328;2023-06-26T12:38:40;34.60;80.70
25716;DHT22;13573;50.936;4.328;2023-06-26T12:41:13;34.60;80.80
25716;DHT22;13573;50.936;4.328;2023-06-26T12:43:41;34.60;79.50
25716;DHT22;13573;50.936;4.328;2023-06-26T12:46:07;34.70;79.80
25716;DHT22;13573;50.936;4.328;2023-06-26T12:48:47;34.80;79.40
25716;DHT22;13573;50.936;4.328;2023-06-26T12:51:15;34.30;79.20
25716;DHT22;13573;50.936;4.328;2023-06-26T12:53:43;33.70;79.80
25716;DHT22;13573;50.936;4.328;2023-06-26T12:56:10;32.90;80.90
25716;DHT22;13573;50.936;4.328;2023-06-26T12:58:37;32.40;81.30
25716;DHT22;13573;50.936;4.328;2023-06-26T13:01:06;31.40;82.80
25716;DHT22;13573;50.936;4.328;2023-06-26T13:03:36;30.60;83.80
25716;DHT22;13573;50.936;4.328;2023-06-26T13:06:03;30.00;85.50
25716;DHT22;13573;50.936;4.328;2023-06-26T13:08:29;30.40;84.20
25716;DHT22;13573;50.936;4.328;2023-06-26T13:10:56;30.50;84.00
25716;DHT22;13573;50.936;4.328;2023-06-26T13:13:23;30.80;83.50
25716;DHT22;13573;50.936;4.328;2023-06-26T13:15:49;32.00;83.70
25716;DHT22;13573;50.936;4.328;2023-06-26T13:18:16;32.20;83.30
25716;DHT22;13573;50.936;4.328;2023-06-26T13:20:42;33.10;82.70
25716;DHT22;13573;50.936;4.328;2023-06-26T13:23:10;32.40;82.20
25716;DHT22;13573;50.936;4.328;2023-06-26T13:25:36;32.60;81.80
25716;DHT22;13573;50.936;4.328;2023-06-26T13:28:03;32.60;81.70
25716;DHT22;13573;50.936;4.328;2023-06-26T13:30:30;31.80;81.40
25716;DHT22;13573;50.936;4.328;2023-06-26T13:32:56;31.90;80.30
25716;DHT22;13573;50.936;4.328;2023-06-26T13:35:23;31.80;80.10
25716;DHT22;13573;50.936;4.328;2023-06-26T13:37:50;31.60;80.50
25716;DHT22;13573;50.936;4.328;2023-06-26T13:40:16;31.80;81.00
25716;DHT22;13573;50.936;4.328;2023-06-26T13:42:43;32.60;80.30
25716;DHT22;13573;50.936;4.328;2023-06-26T13:45:10;32.10;80.90
25716;DHT22;13573;50.936;4.328;2023-06-26T13:47:38;31.70;81.70
25716;DHT22;13573;50.936;4.328;2023-06-26T13:50:08;31.90;82.40
25716;DHT22;13573;50.936;4.328;2023-06-26T13:52:34;30.80;84.40
25716;DHT22;13573;50.936;4.328;2023-06-26T13:55:01;31.00;82.40
25716;DHT22;13573;50.936;4.328;2023-06-26T13:57:30;31.30;83.30
25716;DHT22;13573;50.936;4.328;2023-06-26T13:59:57;31.70;81.50
25716;DHT22;13573;50.936;4.328;2023-06-26T14:02:24;32.10;81.20
25716;DHT22;13573;50.936;4.328;2023-06-26T14:04:52;32.70;80.40
25716;DHT22;13573;50.936;4.328;2023-06-26T14:07:18;32.00;81.20
25716;DHT22;13573;50.936;4.328;2023-06-26T14:09:45;31.70;82.40
25716;DHT22;13573;50.936;4.328;2023-06-26T14:12:12;31.10;83.40
25716;DHT22;13573;50.936;4.328;2023-06-26T14:14:38;31.30;82.20
25716;DHT22;13573;50.936;4.328;2023-06-26T14:17:05;30.50;83.60
25716;DHT22;13573;50.936;4.328;2023-06-26T14:19:32;30.10;83.60
25716;DHT22;13573;50.936;4.328;2023-06-26T14:21:58;29.90;84.50
25716;DHT22;13573;50.936;4.328;2023-06-26T14:24:25;29.70;84.40
25716;DHT22;13573;50.936;4.328;2023-06-26T14:26:52;29.20;86.70
25716;DHT22;13573;50.936;4.328;2023-06-26T14:29:18;29.20;83.70
25716;DHT22;13573;50.936;4.328;2023-06-26T14:31:47;28.90;85.70
25716;DHT22;13573;50.936;4.328;2023-06-26T14:34:14;28.90;85.80
25716;DHT22;13573;50.936;4.328;2023-06-26T14:36:40;28.40;87.70
25716;DHT22;13573;50.936;4.328;2023-06-26T14:39:07;28.80;86.00
25716;DHT22;13573;50.936;4.328;2023-06-26T14:41:33;28.50;86.90
25716;DHT22;13573;50.936;4.328;2023-06-26T14:44:00;28.80;86.50
25716;DHT22;13573;50.936;4.328;2023-06-26T14:46:27;28.70;87.50
25716;DHT22;13573;50.936;4.328;2023-06-26T14:48:53;28.50;87.10
25716;DHT22;13573;50.936;4.328;2023-06-26T14:51:21;28.40;89.00
25716;DHT22;13573;50.936;4.328;2023-06-26T14:53:48;28.00;89.20
25716;DHT22;13573;50.936;4.328;2023-06-26T14:56:15;28.40;89.20
25716;DHT22;13573;50.936;4.328;2023-06-26T14:58:41;28.50;86.90
25716;DHT22;13573;50.936;4.328;2023-06-26T15:01:08;28.10;88.30
25716;DHT22;13573;50.936;4.328;2023-06-26T15:03:34;28.50;88.10
25716;DHT22;13573;50.936;4.328;2023-06-26T15:06:01;28.60;89.20
25716;DHT22;13573;50.936;4.328;2023-06-26T15:08:28;28.40;87.40
25716;DHT22;13573;50.936;4.328;2023-06-26T15:10:54;28.10;87.50
25716;DHT22;13573;50.936;4.328;2023-06-26T15:13:21;27.90;87.20
25716;DHT22;13573;50.936;4.328;2023-06-26T15:15:48;28.00;87.80
25716;DHT22;13573;50.936;4.328;2023-06-26T15:18:15;28.10;87.70
25716;DHT22;13573;50.936;4.328;2023-06-26T15:20:42;28.20;86.90
25716;DHT22;13573;50.936;4.328;2023-06-26T15:23:08;28.20;87.00
25716;DHT22;13573;50.936;4.328;2023-06-26T15:25:35;27.90;87.70
25716;DHT22;13573;50.936;4.328;2023-06-26T15:28:03;27.50;87.70
25716;DHT22;13573;50.936;4.328;2023-06-26T15:30:30;27.70;86.60
25716;DHT22;13573;50.936;4.328;2023-06-26T15:32:57;27.40;87.10
25716;DHT22;13573;50.936;4.328;2023-06-26T15:35:23;27.40;90.00
25716;DHT22;13573;50.936;4.328;2023-06-26T15:37:50;27.70;87.90
25716;DHT22;13573;50.936;4.328;2023-06-26T15:40:16;27.60;87.30
25716;DHT22;13573;50.936;4.328;2023-06-26T15:42:49;27.40;86.80
25716;DHT22;13573;50.936;4.328;2023-06-26T15:45:16;27.30;87.50
25716;DHT22;13573;50.936;4.328;2023-06-26T15:47:44;27.20;87.30
25716;DHT22;13573;50.936;4.328;2023-06-26T15:50:11;27.20;89.80